sensor_id;sensor_type;location;lat;lon;timestamp;temperature;humidity
4431;DHT22;2228;48.140;11.488;2023-02-27T00:00:52;-0.90;5.80
4431;DHT22;2228;48.140;11.488;2023-02-27T00:03:19;-0.90;10.30
4431;DHT22;2228;48.140;11.488;2023-02-27T00:05:45;-0.90;12.50
4431;DHT22;2228;48.140;11.488;2023-02-27T00:08:12;-1.10;7.50
4431;DHT22;2228;48.140;11.488;2023-02-27T00:10:39;-1.10;28.50
4431;DHT22;2228;48.140;11.488;2023-02-27T00:13:06;-1.10;23.40
4431;DHT22;2228;48.140;11.488;2023-02-27T00:15:35;-1.10;30.50
4431;DHT22;2228;48.140;11.488;2023-02-27T00:18:05;-1.20;44.70
4431;DHT22;2228;48.140;11.488;2023-02-27T00:20:33;-1.20;45.80
4431;DHT22;2228;48.140;11.488;2023-02-27T00:23:03;-1.20;44.60
4431;DHT22;2228;48.140;11.488;2023-02-27T00:25:30;-1.40;59.00
4431;DHT22;2228;48.140;11.488;2023-02-27T00:27:57;-1.40;70.10
4431;DHT22;2228;48.140;11.488;2023-02-27T00:30:24;-1.50;99.20
4431;DHT22;2228;48.140;11.488;2023-02-27T00:32:52;-1.50;99.90
4431;DHT22;2228;48.140;11.488;2023-02-27T00:35:20;-1.40;99.90
4431;DHT22;2228;48.140;11.488;2023-02-27T00:37:47;-1.30;99.90
4431;DHT22;2228;48.140;11.488;2023-02-27T00:40:14;-1.30;99.90
4431;DHT22;2228;48.140;11.488;2023-02-27T00:42:41;-1.40;99.90
4431;DHT22;2228;48.140;11.488;2023-02-27T00:45:09;-1.30;99.90
4431;DHT22;2228;48.140;11.488;2023-02-27T00:47:36;-1.10;99.90
4431;DHT22;2228;48.140;11.488;2023-02-27T00:50:04;-1.00;96.80
4431;DHT22;2228;48.140;11.488;2023-02-27T00:52:31;-1.10;92.80
4431;DHT22;2228;48.140;11.488;2023-02-27T00:54:59;-1.10;94.50
4431;DHT22;2228;48.140;11.488;2023-02-27T00:57:27;-1.10;87.90
4431;DHT22;2228;48.140;11.488;2023-02-27T00:59:53;-1.10;66.20
4431;DHT22;2228;48.140;11.488;2023-02-27T01:02:21;-1.00;87.60
4431;DHT22;2228;48.140;11.488;2023-02-27T01:04:48;-1.00;58.50
4431;DHT22;2228;48.140;11.488;2023-02-27T01:07:16;-1.00;87.80
4431;DHT22;2228;48.140;11.488;2023-02-27T01:09:43;-1.10;87.30
4431;DHT22;2228;48.140;11.488;2023-02-27T01:12:10;-1.20;90.40
4431;DHT22;2228;48.140;11.488;2023-02-27T01:14:37;-1.10;99.90
4431;DHT22;2228;48.140;11.488;2023-02-27T01:17:04;-1.10;99.90
4431;DHT22;2228;48.140;11.488;2023-02-27T01:19:31;-1.10;99.50
4431;DHT22;2228;48.140;11.488;2023-02-27T01:21:58;-1.20;98.40
4431;DHT22;2228;48.140;11.488;2023-02-27T01:24:26;-1.20;99.90
4431;DHT22;2228;48.140;11.488;2023-02-27T01:26:53;-1.10;99.90
4431;DHT22;2228;48.140;11.488;2023-02-27T01:29:20;-1.10;86.60
4431;DHT22;2228;48.140;11.488;2023-02-27T01:31:47;-1.10;95.60
4431;DHT22;2228;48.140;11.488;2023-02-27T01:34:14;-1.10;82.80
4431;DHT22;2228;48.140;11.488;2023-02-27T01:36:41;-1.10;89.30
4431;DHT22;2228;48.140;11.488;2023-02-27T01:39:08;-1.10;53.90
4431;DHT22;2228;48.140;11.488;2023-02-27T01:41:36;-1.20;77.10
4431;DHT22;2228;48.140;11.488;2023-02-27T01:44:06;-1.20;62.00
4431;DHT22;2228;48.140;11.488;2023-02-27T01:46:33;-1.30;91.60
4431;DHT22;2228;48.140;11.488;2023-02-27T01:49:04;-1.20;78.30
4431;DHT22;2228;48.140;11.488;2023-02-27T01:51:33;-1.30;62.50
4431;DHT22;2228;48.140;11.488;2023-02-27T01:54:02;-1.20;91.50
4431;DHT22;2228;48.140;11.488;2023-02-27T01:56:30;-1.20;82.80
4431;DHT22;2228;48.140;11.488;2023-02-27T01:59:02;-1.20;58.40
4431;DHT22;2228;48.140;11.488;2023-02-27T02:01:29;-1.20;92.00
4431;DHT22;2228;48.140;11.488;2023-02-27T02:04:02;-1.20;61.50
4431;DHT22;2228;48.140;11.488;2023-02-27T02:06:35;-1.20;81.60
4431;DHT22;2228;48.140;11.488;2023-02-27T02:09:04;-1.20;73.60
4431;DHT22;2228;48.140;11.488;2023-02-27T02:11:31;-1.10;55.10
4431;DHT22;2228;48.140;11.488;2023-02-27T02:14:00;-1.20;89.10
4431;DHT22;2228;48.140;11.488;2023-02-27T02:16:46;-1.20;63.60
4431;DHT22;2228;48.140;11.488;2023-02-27T02:22:43;-1.20;66.80
4431;DHT22;2228;48.140;11.488;2023-02-27T02:25:44;-1.20;51.70
4431;DHT22;2228;48.140;11.488;2023-02-27T02:28:25;-1.30;63.10
4431;DHT22;2228;48.140;11.488;2023-02-27T02:31:08;-1.40;97.80
4431;DHT22;2228;48.140;11.488;2023-02-27T02:37:23;-1.40;97.40
4431;DHT22;2228;48.140;11.488;2023-02-27T02:40:17;-1.40;90.10
4431;DHT22;2228;48.140;11.488;2023-02-27T02:42:52;-1.50;97.50
4431;DHT22;2228;48.140;11.488;2023-02-27T02:45:26;-1.50;99.90
4431;DHT22;2228;48.140;11.488;2023-02-27T02:48:01;-1.40;82.00
4431;DHT22;2228;48.140;11.488;2023-02-27T02:50:35;-1.60;92.60
4431;DHT22;2228;48.140;11.488;2023-02-27T02:53:12;-1.70;99.90
4431;DHT22;2228;48.140;11.488;2023-02-27T02:55:44;-1.70;99.90
4431;DHT22;2228;48.140;11.488;2023-02-27T02:58:16;-1.70;99.90
4431;DHT22;2228;48.140;11.488;2023-02-27T03:00:49;-1.60;99.90
4431;DHT22;2228;48.140;11.488;2023-02-27T03:03:21;-1.60;96.90
4431;DHT22;2228;48.140;11.488;2023-02-27T03:05:54;-1.70;99.90
4431;DHT22;2228;48.140;11.488;2023-02-27T03:08:27;-1.70;99.90
4431;DHT22;2228;48.140;11.488;2023-02-27T03:10:57;-1.60;99.90
4431;DHT22;2228;48.140;11.488;2023-02-27T03:13:29;-1.70;99.90
4431;DHT22;2228;48.140;11.488;2023-02-27T03:16:00;-1.70;99.90
4431;DHT22;2228;48.140;11.488;2023-02-27T03:18:33;-1.70;99.90
4431;DHT22;2228;48.140;11.488;2023-02-27T03:21:04;-1.60;99.90
4431;DHT22;2228;48.140;11.488;2023-02-27T03:23:36;-1.60;99.90
4431;DHT22;2228;48.140;11.488;2023-02-27T03:26:09;-1.70;88.40
4431;DHT22;2228;48.140;11.488;2023-02-27T03:28:41;-1.80;99.90
4431;DHT22;2228;48.140;11.488;2023-02-27T03:31:18;-1.70;99.90
4431;DHT22;2228;48.140;11.488;2023-02-27T03:33:51;-1.70;99.90
4431;DHT22;2228;48.140;11.488;2023-02-27T03:36:26;-1.80;99.90
4431;DHT22;2228;48.140;11.488;2023-02-27T03:39:03;-1.80;99.90
4431;DHT22;2228;48.140;11.488;2023-02-27T03:41:35;-1.70;99.90
4431;DHT22;2228;48.140;11.488;2023-02-27T03:44:06;-1.70;99.90
4431;DHT22;2228;48.140;11.488;2023-02-27T03:46:36;-1.60;99.90
4431;DHT22;2228;48.140;11.488;2023-02-27T03:49:03;-1.60;99.90
4431;DHT22;2228;48.140;11.488;2023-02-27T03:51:31;-1.50;99.90
4431;DHT22;2228;48.140;11.488;2023-02-27T03:54:03;-1.50;99.90
4431;DHT22;2228;48.140;11.488;2023-02-27T03:56:37;-1.40;92.30
4431;DHT22;2228;48.140;11.488;2023-02-27T03:59:05;-1.50;99.90
4431;DHT22;2228;48.140;11.488;2023-02-27T04:01:32;-1.50;72.80
4431;DHT22;2228;48.140;11.488;2023-02-27T04:04:02;-1.50;93.00
4431;DHT22;2228;48.140;11.488;2023-02-27T04:06:31;-1.40;91.00
4431;DHT22;2228;48.140;11.488;2023-02-27T04:09:22;-1.50;91.60
4431;DHT22;2228;48.140;11.488;2023-02-27T04:12:09;-1.50;99.80
4431;DHT22;2228;48.140;11.488;2023-02-27T04:14:51;-1.40;77.10
4431;DHT22;2228;48.140;11.488;2023-02-27T04:17:25;-1.40;91.50
4431;DHT22;2228;48.140;11.488;2023-02-27T04:20:11;-1.50;98.30
4431;DHT22;2228;48.140;11.488;2023-02-27T04:22:46;-1.40;97.90
4431;DHT22;2228;48.140;11.488;2023-02-27T04:25:35;-1.40;98.60
4431;DHT22;2228;48.140;11.488;2023-02-27T04:28:13;-1.30;69.80
4431;DHT22;2228;48.140;11.488;2023-02-27T04:30:47;-1.40;60.40
4431;DHT22;2228;48.140;11.488;2023-02-27T04:33:28;-1.50;90.70
4431;DHT22;2228;48.140;11.488;2023-02-27T04:36:02;-1.40;80.50
4431;DHT22;2228;48.140;11.488;2023-02-27T04:38:35;-1.40;61.50
4431;DHT22;2228;48.140;11.488;2023-02-27T04:41:04;-1.40;79.60
4431;DHT22;2228;48.140;11.488;2023-02-27T04:43:36;-1.40;77.00
4431;DHT22;2228;48.140;11.488;2023-02-27T04:46:07;-1.40;99.90
4431;DHT22;2228;48.140;11.488;2023-02-27T04:48:37;-1.30;82.10
4431;DHT22;2228;48.140;11.488;2023-02-27T04:51:09;-1.40;70.50
4431;DHT22;2228;48.140;11.488;2023-02-27T04:53:44;-1.30;94.60
4431;DHT22;2228;48.140;11.488;2023-02-27T04:56:15;-1.20;73.60
4431;DHT22;2228;48.140;11.488;2023-02-27T04:58:48;-1.20;91.90
4431;DHT22;2228;48.140;11.488;2023-02-27T05:01:20;-1.20;82.60
4431;DHT22;2228;48.140;11.488;2023-02-27T05:03:50;-1.20;73.80
4431;DHT22;2228;48.140;11.488;2023-02-27T05:06:20;-1.20;64.10
4431;DHT22;2228;48.140;11.488;2023-02-27T05:08:54;-1.20;76.20
4431;DHT22;2228;48.140;11.488;2023-02-27T05:11:27;-1.10;51.20
4431;DHT22;2228;48.140;11.488;2023-02-27T05:13:58;-1.10;24.60
4431;DHT22;2228;48.140;11.488;2023-02-27T05:16:30;-1.10;44.20
4431;DHT22;2228;48.140;11.488;2023-02-27T05:18:58;-1.20;26.90
4431;DHT22;2228;48.140;11.488;2023-02-27T05:21:29;-1.30;39.50
4431;DHT22;2228;48.140;11.488;2023-02-27T05:24:05;-1.40;68.20
4431;DHT22;2228;48.140;11.488;2023-02-27T05:26:51;-1.50;88.00
4431;DHT22;2228;48.140;11.488;2023-02-27T05:29:27;-1.50;93.70
4431;DHT22;2228;48.140;11.488;2023-02-27T05:32:02;-1.60;78.00
4431;DHT22;2228;48.140;11.488;2023-02-27T05:34:34;-1.60;97.30
4431;DHT22;2228;48.140;11.488;2023-02-27T05:37:06;-1.50;92.30
4431;DHT22;2228;48.140;11.488;2023-02-27T05:39:37;-1.60;94.30
4431;DHT22;2228;48.140;11.488;2023-02-27T05:42:09;-1.70;99.90
4431;DHT22;2228;48.140;11.488;2023-02-27T05:44:43;-1.70;98.30
4431;DHT22;2228;48.140;11.488;2023-02-27T05:47:17;-1.60;99.90
4431;DHT22;2228;48.140;11.488;2023-02-27T05:49:48;-1.70;99.90
4431;DHT22;2228;48.140;11.488;2023-02-27T05:52:20;-1.70;99.90
4431;DHT22;2228;48.140;11.488;2023-02-27T05:54:52;-1.80;99.90
4431;DHT22;2228;48.140;11.488;2023-02-27T05:57:25;-1.70;99.90
4431;DHT22;2228;48.140;11.488;2023-02-27T05:59:58;-1.60;78.70
4431;DHT22;2228;48.140;11.488;2023-02-27T06:02:27;-1.70;99.90
4431;DHT22;2228;48.140;11.488;2023-02-27T06:04:54;-1.60;79.00
4431;DHT22;2228;48.140;11.488;2023-02-27T06:07:22;-1.70;92.40
4431;DHT22;2228;48.140;11.488;2023-02-27T06:09:49;-1.70;90.00
4431;DHT22;2228;48.140;11.488;2023-02-27T06:12:16;-1.70;93.40
4431;DHT22;2228;48.140;11.488;2023-02-27T06:14:43;-1.60;71.60
4431;DHT22;2228;48.140;11.488;2023-02-27T06:17:12;-1.60;78.50
4431;DHT22;2228;48.140;11.488;2023-02-27T06:19:39;-1.60;94.80
4431;DHT22;2228;48.140;11.488;2023-02-27T06:22:08;-1.50;71.10
4431;DHT22;2228;48.140;11.488;2023-02-27T06:24:35;-1.60;65.10
4431;DHT22;2228;48.140;11.488;2023-02-27T06:27:02;-1.50;48.00
4431;DHT22;2228;48.140;11.488;2023-02-27T06:29:29;-1.60;56.70
4431;DHT22;2228;48.140;11.488;2023-02-27T06:31:56;-1.40;60.00
4431;DHT22;2228;48.140;11.488;2023-02-27T06:34:25;-1.30;45.30
4431;DHT22;2228;48.140;11.488;2023-02-27T06:36:53;-1.30;30.00
4431;DHT22;2228;48.140;11.488;2023-02-27T06:39:20;-1.20;28.80
4431;DHT22;2228;48.140;11.488;2023-02-27T06:41:47;-1.30;35.30
4431;DHT22;2228;48.140;11.488;2023-02-27T06:44:14;-1.20;38.20
4431;DHT22;2228;48.140;11.488;2023-02-27T06:46:41;-1.20;38.10
4431;DHT22;2228;48.140;11.488;2023-02-27T06:49:08;-1.10;18.00
4431;DHT22;2228;48.140;11.488;2023-02-27T06:51:36;-1.00;15.30
4431;DHT22;2228;48.140;11.488;2023-02-27T06:54:04;-0.90;13.90
4431;DHT22;2228;48.140;11.488;2023-02-27T06:56:31;-0.70;13.30
4431;DHT22;2228;48.140;11.488;2023-02-27T06:58:58;-0.60;1.00
4431;DHT22;2228;48.140;11.488;2023-02-27T07:01:25;-0.60;1.00
4431;DHT22;2228;48.140;11.488;2023-02-27T07:03:52;-0.50;1.00
4431;DHT22;2228;48.140;11.488;2023-02-27T07:06:18;-0.40;1.00
4431;DHT22;2228;48.140;11.488;2023-02-27T07:08:47;-0.40;1.00
4431;DHT22;2228;48.140;11.488;2023-02-27T07:11:14;-0.40;1.00
4431;DHT22;2228;48.140;11.488;2023-02-27T07:13:41;-0.30;1.00
4431;DHT22;2228;48.140;11.488;2023-02-27T07:16:08;-0.10;1.00
4431;DHT22;2228;48.140;11.488;2023-02-27T07:18:35;0.00;1.00
4431;DHT22;2228;48.140;11.488;2023-02-27T07:21:02;0.00;1.00
4431;DHT22;2228;48.140;11.488;2023-02-27T07:23:29;0.00;1.00
4431;DHT22;2228;48.140;11.488;2023-02-27T07:25:58;0.10;1.00
4431;DHT22;2228;48.140;11.488;2023-02-27T07:28:25;0.20;1.00
4431;DHT22;2228;48.140;11.488;2023-02-27T07:30:53;0.30;1.00
4431;DHT22;2228;48.140;11.488;2023-02-27T07:33:20;0.30;1.00
4431;DHT22;2228;48.140;11.488;2023-02-27T07:35:48;0.40;1.00
4431;DHT22;2228;48.140;11.488;2023-02-27T07:38:16;0.40;1.00
4431;DHT22;2228;48.140;11.488;2023-02-27T07:40:43;0.50;1.00
4431;DHT22;2228;48.140;11.488;2023-02-27T07:43:12;0.60;1.00
4431;DHT22;2228;48.140;11.488;2023-02-27T07:45:39;0.70;1.00
4431;DHT22;2228;48.140;11.488;2023-02-27T07:48:07;0.90;1.00
4431;DHT22;2228;48.140;11.488;2023-02-27T07:50:35;0.80;1.00
4431;DHT22;2228;48.140;11.488;2023-02-27T07:53:02;0.80;1.00
4431;DHT22;2228;48.140;11.488;2023-02-27T07:55:30;1.00;1.00
4431;DHT22;2228;48.140;11.488;2023-02-27T07:57:57;1.10;1.00
4431;DHT22;2228;48.140;11.488;2023-02-27T08:00:25;1.10;1.00
4431;DHT22;2228;48.140;11.488;2023-02-27T08:02:52;1.20;1.00
4431;DHT22;2228;48.140;11.488;2023-02-27T08:05:19;1.20;1.00
4431;DHT22;2228;48.140;11.488;2023-02-27T08:07:46;1.40;1.00
4431;DHT22;2228;48.140;11.488;2023-02-27T08:10:13;1.40;1.00
4431;DHT22;2228;48.140;11.488;2023-02-27T08:12:41;1.50;1.00
4431;DHT22;2228;48.140;11.488;2023-02-27T08:15:11;1.80;1.00
4431;DHT22;2228;48.140;11.488;2023-02-27T08:17:40;1.90;1.00
4431;DHT22;2228;48.140;11.488;2023-02-27T08:20:08;2.20;1.00
4431;DHT22;2228;48.140;11.488;2023-02-27T08:22:38;2.30;1.00
4431;DHT22;2228;48.140;11.488;2023-02-27T08:25:07;2.40;1.00
4431;DHT22;2228;48.140;11.488;2023-02-27T08:27:36;2.40;1.00
4431;DHT22;2228;48.140;11.488;2023-02-27T08:30:05;2.40;1.00
4431;DHT22;2228;48.140;11.488;2023-02-27T08:32:32;2.30;1.00
4431;DHT22;2228;48.140;11.488;2023-02-27T08:35:01;2.20;1.00
4431;DHT22;2228;48.140;11.488;2023-02-27T08:37:28;2.10;1.00
4431;DHT22;2228;48.140;11.488;2023-02-27T08:39:55;1.90;1.00
4431;DHT22;2228;48.140;11.488;2023-02-27T08:42:22;2.00;1.00
4431;DHT22;2228;48.140;11.488;2023-02-27T08:44:49;1.90;1.00
4431;DHT22;2228;48.140;11.488;2023-02-27T08:47:16;2.00;1.00
4431;DHT22;2228;48.140;11.488;2023-02-27T08:49:44;1.90;1.00
4431;DHT22;2228;48.140;11.488;2023-02-27T08:52:13;1.90;1.00
4431;DHT22;2228;48.140;11.488;2023-02-27T08:54:40;1.70;1.00
4431;DHT22;2228;48.140;11.488;2023-02-27T08:57:07;1.70;1.00
4431;DHT22;2228;48.140;11.488;2023-02-27T08:59:34;1.70;1.00
4431;DHT22;2228;48.140;11.488;2023-02-27T09:02:01;1.90;1.00
4431;DHT22;2228;48.140;11.488;2023-02-27T09:04:28;2.20;1.00
4431;DHT22;2228;48.140;11.488;2023-02-27T09:06:55;2.30;1.00
4431;DHT22;2228;48.140;11.488;2023-02-27T09:09:24;2.50;1.00
4431;DHT22;2228;48.140;11.488;2023-02-27T09:11:52;2.50;1.00
4431;DHT22;2228;48.140;11.488;2023-02-27T09:14:19;2.50;1.00
4431;DHT22;2228;48.140;11.488;2023-02-27T09:16:46;2.60;1.00
4431;DHT22;2228;48.140;11.488;2023-02-27T09:19:13;2.60;1.00
4431;DHT22;2228;48.140;11.488;2023-02-27T09:21:40;2.50;1.00
4431;DHT22;2228;48.140;11.488;2023-02-27T09:24:08;2.40;1.00
4431;DHT22;2228;48.140;11.488;2023-02-27T09:26:36;2.40;1.00
4431;DHT22;2228;48.140;11.488;2023-02-27T09:29:03;2.20;1.00
4431;DHT22;2228;48.140;11.488;2023-02-27T09:31:30;2.20;1.00
4431;DHT22;2228;48.140;11.488;2023-02-27T09:33:57;2.40;1.00
4431;DHT22;2228;48.140;11.488;2023-02-27T09:36:27;2.50;1.00
4431;DHT22;2228;48.140;11.488;2023-02-27T09:38:54;2.50;1.00
4431;DHT22;2228;48.140;11.488;2023-02-27T09:41:38;2.50;1.00
4431;DHT22;2228;48.140;11.488;2023-02-27T09:44:16;2.40;1.00
4431;DHT22;2228;48.140;11.488;2023-02-27T09:46:46;2.10;1.00
4431;DHT22;2228;48.140;11.488;2023-02-27T09:49:18;2.00;1.00
4431;DHT22;2228;48.140;11.488;2023-02-27T09:51:47;1.90;1.00
4431;DHT22;2228;48.140;11.488;2023-02-27T09:54:16;1.80;1.00
4431;DHT22;2228;48.140;11.488;2023-02-27T09:56:48;1.60;1.00
4431;DHT22;2228;48.140;11.488;2023-02-27T09:59:25;1.50;1.00
4431;DHT22;2228;48.140;11.488;2023-02-27T10:01:59;1.60;1.00
4431;DHT22;2228;48.140;11.488;2023-02-27T10:04:35;2.00;1.00
4431;DHT22;2228;48.140;11.488;2023-02-27T10:07:12;2.20;1.00
4431;DHT22;2228;48.140;11.488;2023-02-27T10:09:49;2.20;1.00
4431;DHT22;2228;48.140;11.488;2023-02-27T10:12:27;2.40;1.00
4431;DHT22;2228;48.140;11.488;2023-02-27T10:14:58;2.60;1.00
4431;DHT22;2228;48.140;11.488;2023-02-27T10:17:32;2.80;1.00
4431;DHT22;2228;48.140;11.488;2023-02-27T10:20:02;3.10;1.00
4431;DHT22;2228;48.140;11.488;2023-02-27T10:22:35;3.20;1.00
4431;DHT22;2228;48.140;11.488;2023-02-27T10:25:06;3.30;1.00
4431;DHT22;2228;48.140;11.488;2023-02-27T10:27:40;3.30;1.00
4431;DHT22;2228;48.140;11.488;2023-02-27T10:30:18;3.10;1.00
4431;DHT22;2228;48.140;11.488;2023-02-27T10:32:46;2.80;1.00
4431;DHT22;2228;48.140;11.488;2023-02-27T10:35:21;2.60;1.00
4431;DHT22;2228;48.140;11.488;2023-02-27T10:37:55;2.40;1.00
4431;DHT22;2228;48.140;11.488;2023-02-27T10:40:23;2.30;1.00
4431;DHT22;2228;48.140;11.488;2023-02-27T10:42:52;2.30;1.00
4431;DHT22;2228;48.140;11.488;2023-02-27T10:45:20;2.30;1.00
4431;DHT22;2228;48.140;11.488;2023-02-27T10:47:47;2.40;1.00
4431;DHT22;2228;48.140;11.488;2023-02-27T10:50:25;2.40;1.00
4431;DHT22;2228;48.140;11.488;2023-02-27T10:52:56;2.60;1.00
4431;DHT22;2228;48.140;11.488;2023-02-27T10:55:27;2.80;1.00
4431;DHT22;2228;48.140;11.488;2023-02-27T10:57:57;3.00;1.00
4431;DHT22;2228;48.140;11.488;2023-02-27T11:00:40;3.10;1.00
4431;DHT22;2228;48.140;11.488;2023-02-27T11:03:17;2.90;1.00
4431;DHT22;2228;48.140;11.488;2023-02-27T11:05:52;2.70;1.00
4431;DHT22;2228;48.140;11.488;2023-02-27T11:08:21;2.40;1.00
4431;DHT22;2228;48.140;11.488;2023-02-27T11:10:54;2.50;1.00
4431;DHT22;2228;48.140;11.488;2023-02-27T11:13:24;2.80;1.00
4431;DHT22;2228;48.140;11.488;2023-02-27T11:16:04;2.80;1.00
4431;DHT22;2228;48.140;11.488;2023-02-27T11:18:33;2.90;1.00
4431;DHT22;2228;48.140;11.488;2023-02-27T11:21:16;2.80;1.00
4431;DHT22;2228;48.140;11.488;2023-02-27T11:23:53;2.80;1.00
4431;DHT22;2228;48.140;11.488;2023-02-27T11:26:24;2.80;1.00
4431;DHT22;2228;48.140;11.488;2023-02-27T11:29:11;2.90;1.00
4431;DHT22;2228;48.140;11.488;2023-02-27T11:31:45;3.00;1.00
4431;DHT22;2228;48.140;11.488;2023-02-27T11:34:20;3.20;1.00
4431;DHT22;2228;48.140;11.488;2023-02-27T11:36:50;3.10;1.00
4431;DHT22;2228;48.140;11.488;2023-02-27T11:39:23;3.00;1.00
4431;DHT22;2228;48.140;11.488;2023-02-27T11:41:51;2.90;1.00
4431;DHT22;2228;48.140;11.488;2023-02-27T11:44:24;2.90;1.00
4431;DHT22;2228;48.140;11.488;2023-02-27T11:47:05;2.90;1.00
4431;DHT22;2228;48.140;11.488;2023-02-27T11:49:36;2.90;1.00
4431;DHT22;2228;48.140;11.488;2023-02-27T11:52:10;2.90;1.00
4431;DHT22;2228;48.140;11.488;2023-02-27T11:54:38;2.90;1.00
4431;DHT22;2228;48.140;11.488;2023-02-27T11:57:13;3.00;1.00
4431;DHT22;2228;48.140;11.488;2023-02-27T11:59:48;3.10;1.00
4431;DHT22;2228;48.140;11.488;2023-02-27T12:02:21;3.40;1.00
4431;DHT22;2228;48.140;11.488;2023-02-27T12:04:54;3.50;1.00
4431;DHT22;2228;48.140;11.488;2023-02-27T12:07:26;3.60;1.00
4431;DHT22;2228;48.140;11.488;2023-02-27T12:10:00;3.50;1.00
4431;DHT22;2228;48.140;11.488;2023-02-27T12:12:33;3.60;1.00
4431;DHT22;2228;48.140;11.488;2023-02-27T12:15:09;3.50;1.00
4431;DHT22;2228;48.140;11.488;2023-02-27T12:17:44;3.50;1.00
4431;DHT22;2228;48.140;11.488;2023-02-27T12:20:26;3.50;1.00
4431;DHT22;2228;48.140;11.488;2023-02-27T12:22:54;3.50;1.00
4431;DHT22;2228;48.140;11.488;2023-02-27T12:25:47;3.40;1.00
4431;DHT22;2228;48.140;11.488;2023-02-27T12:28:34;3.20;1.00
4431;DHT22;2228;48.140;11.488;2023-02-27T12:31:48;3.20;1.00
4431;DHT22;2228;48.140;11.488;2023-02-27T12:34:24;2.90;1.00
4431;DHT22;2228;48.140;11.488;2023-02-27T12:36:53;2.70;1.00
4431;DHT22;2228;48.140;11.488;2023-02-27T12:39:22;2.80;1.00
4431;DHT22;2228;48.140;11.488;2023-02-27T12:42:18;2.70;1.00
4431;DHT22;2228;48.140;11.488;2023-02-27T12:45:02;2.80;1.00
4431;DHT22;2228;48.140;11.488;2023-02-27T12:47:41;3.00;1.00
4431;DHT22;2228;48.140;11.488;2023-02-27T12:50:12;3.10;1.00
4431;DHT22;2228;48.140;11.488;2023-02-27T12:52:49;3.00;1.00
4431;DHT22;2228;48.140;11.488;2023-02-27T12:55:22;3.10;1.00
4431;DHT22;2228;48.140;11.488;2023-02-27T12:58:10;3.00;1.00
4431;DHT22;2228;48.140;11.488;2023-02-27T13:00:45;3.10;1.00
4431;DHT22;2228;48.140;11.488;2023-02-27T13:03:19;3.00;1.00
4431;DHT22;2228;48.140;11.488;2023-02-27T13:05:55;2.90;1.00
4431;DHT22;2228;48.140;11.488;2023-02-27T13:08:45;3.00;1.00
4431;DHT22;2228;48.140;11.488;2023-02-27T13:11:22;3.10;1.00
4431;DHT22;2228;48.140;11.488;2023-02-27T13:13:54;3.10;1.00
4431;DHT22;2228;48.140;11.488;2023-02-27T13:16:27;3.30;1.00
4431;DHT22;2228;48.140;11.488;2023-02-27T13:19:00;3.40;1.00
4431;DHT22;2228;48.140;11.488;2023-02-27T13:21:32;3.40;1.00
4431;DHT22;2228;48.140;11.488;2023-02-27T13:24:19;3.60;1.00
4431;DHT22;2228;48.140;11.488;2023-02-27T13:26:52;4.10;1.00
4431;DHT22;2228;48.140;11.488;2023-02-27T13:29:22;4.20;1.00
4431;DHT22;2228;48.140;11.488;2023-02-27T13:31:56;4.40;1.00
4431;DHT22;2228;48.140;11.488;2023-02-27T13:34:32;4.80;1.00
4431;DHT22;2228;48.140;11.488;2023-02-27T13:37:01;5.00;1.00
4431;DHT22;2228;48.140;11.488;2023-02-27T13:42:49;4.30;1.00
4431;DHT22;2228;48.140;11.488;2023-02-27T13:45:55;4.30;1.00
4431;DHT22;2228;48.140;11.488;2023-02-27T13:48:43;4.20;1.00
4431;DHT22;2228;48.140;11.488;2023-02-27T13:54:31;4.30;1.00
4431;DHT22;2228;48.140;11.488;2023-02-27T13:57:15;4.10;1.00
4431;DHT22;2228;48.140;11.488;2023-02-27T13:59:51;4.30;1.00
4431;DHT22;2228;48.140;11.488;2023-02-27T14:05:12;4.00;1.00
4431;DHT22;2228;48.140;11.488;2023-02-27T14:07:57;3.70;1.00
4431;DHT22;2228;48.140;11.488;2023-02-27T14:10:28;3.50;1.00
4431;DHT22;2228;48.140;11.488;2023-02-27T14:12:56;3.60;1.00
4431;DHT22;2228;48.140;11.488;2023-02-27T14:15:50;3.40;1.00
4431;DHT22;2228;48.140;11.488;2023-02-27T14:18:53;3.30;1.00
4431;DHT22;2228;48.140;11.488;2023-02-27T14:21:51;3.30;1.00
4431;DHT22;2228;48.140;11.488;2023-02-27T14:24:20;3.20;1.00
4431;DHT22;2228;48.140;11.488;2023-02-27T14:26:50;3.20;1.00
4431;DHT22;2228;48.140;11.488;2023-02-27T14:29:21;3.30;1.00
4431;DHT22;2228;48.140;11.488;2023-02-27T14:31:49;3.30;1.00
4431;DHT22;2228;48.140;11.488;2023-02-27T14:34:19;3.20;1.00
4431;DHT22;2228;48.140;11.488;2023-02-27T14:36:49;3.10;1.00
4431;DHT22;2228;48.140;11.488;2023-02-27T14:39:20;2.90;1.00
4431;DHT22;2228;48.140;11.488;2023-02-27T14:41:57;2.80;1.00
4431;DHT22;2228;48.140;11.488;2023-02-27T14:44:30;2.70;1.00
4431;DHT22;2228;48.140;11.488;2023-02-27T14:47:03;2.60;1.00
4431;DHT22;2228;48.140;11.488;2023-02-27T14:49:31;2.60;1.00
4431;DHT22;2228;48.140;11.488;2023-02-27T14:52:10;2.50;1.00
4431;DHT22;2228;48.140;11.488;2023-02-27T14:54:37;2.50;1.00
4431;DHT22;2228;48.140;11.488;2023-02-27T14:57:06;2.50;1.00
4431;DHT22;2228;48.140;11.488;2023-02-27T14:59:40;2.40;1.00
4431;DHT22;2228;48.140;11.488;2023-02-27T15:02:17;2.40;1.00
4431;DHT22;2228;48.140;11.488;2023-02-27T15:04:47;2.50;1.00
4431;DHT22;2228;48.140;11.488;2023-02-27T15:07:18;2.40;1.00
4431;DHT22;2228;48.140;11.488;2023-02-27T15:09:49;2.50;1.00
4431;DHT22;2228;48.140;11.488;2023-02-27T15:12:19;2.50;1.00
4431;DHT22;2228;48.140;11.488;2023-02-27T15:14:49;2.50;1.00
4431;DHT22;2228;48.140;11.488;2023-02-27T15:17:19;2.30;1.00
4431;DHT22;2228;48.140;11.488;2023-02-27T15:19:47;2.20;1.00
4431;DHT22;2228;48.140;11.488;2023-02-27T15:22:17;2.20;1.00
4431;DHT22;2228;48.140;11.488;2023-02-27T15:24:46;2.10;1.00
4431;DHT22;2228;48.140;11.488;2023-02-27T15:27:17;2.00;1.00
4431;DHT22;2228;48.140;11.488;2023-02-27T15:29:53;2.10;1.00
4431;DHT22;2228;48.140;11.488;2023-02-27T15:32:36;2.00;1.00
4431;DHT22;2228;48.140;11.488;2023-02-27T15:35:12;1.90;1.00
4431;DHT22;2228;48.140;11.488;2023-02-27T15:37:44;2.00;1.00
4431;DHT22;2228;48.140;11.488;2023-02-27T15:40:19;1.90;1.00
4431;DHT22;2228;48.140;11.488;2023-02-27T15:42:47;1.80;1.00
4431;DHT22;2228;48.140;11.488;2023-02-27T15:45:17;1.80;1.00
4431;DHT22;2228;48.140;11.488;2023-02-27T15:47:45;1.70;1.00
4431;DHT22;2228;48.140;11.488;2023-02-27T15:50:35;1.90;1.00
4431;DHT22;2228;48.140;11.488;2023-02-27T15:53:03;2.00;1.00
4431;DHT22;2228;48.140;11.488;2023-02-27T15:55:33;1.90;1.00
4431;DHT22;2228;48.140;11.488;2023-02-27T15:58:02;1.90;1.00
4431;DHT22;2228;48.140;11.488;2023-02-27T16:00:33;1.90;1.00
4431;DHT22;2228;48.140;11.488;2023-02-27T16:03:01;1.90;1.00
4431;DHT22;2228;48.140;11.488;2023-02-27T16:05:32;1.70;1.00
4431;DHT22;2228;48.140;11.488;2023-02-27T16:08:00;1.60;1.00
4431;DHT22;2228;48.140;11.488;2023-02-27T16:10:29;1.50;1.00
4431;DHT22;2228;48.140;11.488;2023-02-27T16:13:18;1.50;1.00
4431;DHT22;2228;48.140;11.488;2023-02-27T16:15:58;1.40;1.00
4431;DHT22;2228;48.140;11.488;2023-02-27T16:18:30;1.20;1.00
4431;DHT22;2228;48.140;11.488;2023-02-27T16:21:09;1.10;1.00
4431;DHT22;2228;48.140;11.488;2023-02-27T16:23:36;1.10;1.00
4431;DHT22;2228;48.140;11.488;2023-02-27T16:26:13;1.00;1.00
4431;DHT22;2228;48.140;11.488;2023-02-27T16:28:49;1.00;1.00
4431;DHT22;2228;48.140;11.488;2023-02-27T16:31:22;0.80;1.00
4431;DHT22;2228;48.140;11.488;2023-02-27T16:33:50;0.80;1.00
4431;DHT22;2228;48.140;11.488;2023-02-27T16:36:19;0.80;1.00
4431;DHT22;2228;48.140;11.488;2023-02-27T16:38:47;0.70;1.00
4431;DHT22;2228;48.140;11.488;2023-02-27T16:41:15;0.80;1.00
4431;DHT22;2228;48.140;11.488;2023-02-27T16:43:43;0.70;1.00
4431;DHT22;2228;48.140;11.488;2023-02-27T16:46:10;0.70;1.00
4431;DHT22;2228;48.140;11.488;2023-02-27T16:48:41;0.70;1.00
4431;DHT22;2228;48.140;11.488;2023-02-27T16:51:14;0.40;1.00